Time;durP1;ratioP1;P1;durP2;ratioP2;P2;SDS_P1;SDS_P2;PMS_P1;PMS_P2;Temp;Humidity;BMP_temperature;BMP_pressure;BME280_temperature;BME280_humidity;BME280_pressure;Samples;Min_cycle;Max_cycle;Signal;HPM_P1;HPM_P2
2024/01/31 00:02:57;;;;;;;48.80;24.50;;;;;;;4.78;100.00;101770.57;219428;1268;139837;-85
2024/01/31 00:07:57;;;;;;;43.70;23.50;;;;;;;4.77;100.00;101772.52;219845;1269;139662;-85
2024/01/31 00:12:57;;;;;;;48.10;24.20;;;;;;;4.75;100.00;101771.02;219346;1264;140883;-86
2024/01/31 00:17:58;;;;;;;47.50;25.80;;;;;;;4.74;100.00;101775.09;220148;1269;138862;-84
2024/01/31 00:22:58;;;;;;;46.60;24.50;;;;;;;4.71;100.00;101780.17;219373;1267;139671;-85
2024/01/31 00:27:59;;;;;;;39.50;21.90;;;;;;;4.70;100.00;101776.77;219799;1269;97956;-85
2024/01/31 00:32:59;;;;;;;50.10;23.10;;;;;;;4.67;100.00;101780.47;219402;1267;139633;-86
2024/01/31 00:38:00;;;;;;;47.50;22.40;;;;;;;4.65;100.00;101788.53;219818;1269;139543;-85
2024/01/31 00:43:00;;;;;;;48.20;24.70;;;;;;;4.61;100.00;101789.32;219348;1264;140158;-85
2024/01/31 00:48:01;;;;;;;47.00;24.30;;;;;;;4.56;100.00;101787.80;220452;1264;139790;-85
2024/01/31 00:53:03;;;;;;;45.50;23.90;;;;;;;4.47;100.00;101783.30;219340;1264;140950;-84
2024/01/31 00:58:03;;;;;;;55.70;26.90;;;;;;;4.41;100.00;101780.91;219791;1264;98851;-85
2024/01/31 01:03:04;;;;;;;43.10;22.40;;;;;;;4.37;100.00;101776.54;219951;1264;140016;-83
2024/01/31 01:08:05;;;;;;;44.70;22.30;;;;;;;4.34;100.00;101777.46;220502;1269;138696;-82
2024/01/31 01:13:06;;;;;;;42.80;22.90;;;;;;;4.32;100.00;101771.89;220007;1268;139054;-83
2024/01/31 01:18:07;;;;;;;42.90;21.60;;;;;;;4.31;100.00;101770.59;220570;1269;138819;-83
2024/01/31 01:23:07;;;;;;;47.60;23.00;;;;;;;4.31;100.00;101774.06;220038;1267;139892;-83
2024/01/31 01:28:08;;;;;;;43.20;22.90;;;;;;;4.33;100.00;101765.38;220571;1269;97946;-84
2024/01/31 01:33:08;;;;;;;37.80;20.90;;;;;;;4.36;100.00;101762.48;219541;1264;139755;-83
2024/01/31 01:38:09;;;;;;;42.20;21.80;;;;;;;4.38;100.00;101763.36;219736;1264;138754;-83
2024/01/31 01:43:17;;;;;;;47.00;22.60;;;;;;;4.40;100.00;101777.02;219193;1268;139904;-83
2024/01/31 01:48:18;;;;;;;45.40;22.00;;;;;;;4.42;100.00;101776.86;220561;1264;139457;-83
2024/01/31 01:53:18;;;;;;;41.40;23.00;;;;;;;4.46;100.00;101777.15;219481;1268;140027;-84
2024/01/31 01:58:19;;;;;;;46.50;23.70;;;;;;;4.49;100.00;101783.96;220103;1264;99185;-83
2024/01/31 02:03:20;;;;;;;42.30;23.40;;;;;;;4.53;100.00;101775.60;219553;1269;140068;-84
2024/01/31 02:08:21;;;;;;;42.30;23.20;;;;;;;4.58;100.00;101771.58;220018;1264;139014;-84
2024/01/31 02:13:22;;;;;;;39.50;21.00;;;;;;;4.62;100.00;101775.23;219357;1264;139669;-85
2024/01/31 02:18:27;;;;;;;41.00;21.70;;;;;;;4.65;100.00;101777.63;219961;1269;138977;-84
2024/01/31 02:23:28;;;;;;;38.60;22.20;;;;;;;4.70;100.00;101772.34;219819;1264;140924;-84
2024/01/31 02:28:28;;;;;;;38.00;20.50;;;;;;;4.74;100.00;101776.84;219895;1268;97915;-83
2024/01/31 02:33:28;;;;;;;45.60;22.70;;;;;;;4.79;100.00;101777.29;219299;1264;139560;-84
2024/01/31 02:38:29;;;;;;;41.70;21.10;;;;;;;4.84;100.00;101771.89;219829;1264;139408;-83
2024/01/31 02:43:29;;;;;;;40.10;22.00;;;;;;;4.89;100.00;101771.49;219274;1267;140277;-83
2024/01/31 02:48:30;;;;;;;42.30;22.20;;;;;;;4.95;100.00;101776.42;220682;1267;139394;-86
2024/01/31 02:53:30;;;;;;;36.10;20.40;;;;;;;4.99;100.00;101774.77;219826;1264;140341;-83
2024/01/31 02:58:30;;;;;;;40.80;20.50;;;;;;;5.03;100.00;101776.05;219865;1267;97914;-84
2024/01/31 03:03:31;;;;;;;40.90;20.90;;;;;;;5.04;100.00;101771.08;219228;1267;139732;-83
2024/01/31 03:08:31;;;;;;;38.80;20.60;;;;;;;5.06;100.00;101767.54;219719;1264;138867;-82
2024/01/31 03:13:32;;;;;;;41.30;21.30;;;;;;;5.08;100.00;101763.74;219363;1264;139834;-84
2024/01/31 03:18:32;;;;;;;39.80;22.80;;;;;;;5.08;100.00;101763.90;219706;1264;138817;-84
2024/01/31 03:23:33;;;;;;;38.20;22.10;;;;;;;5.10;100.00;101762.56;219224;1264;139827;-83
2024/01/31 03:28:36;;;;;;;39.00;22.80;;;;;;;5.11;100.00;101762.09;219794;1264;99186;-85
2024/01/31 03:33:37;;;;;;;38.00;20.50;;;;;;;5.11;100.00;101756.73;219308;1264;139594;-84
2024/01/31 03:38:38;;;;;;;39.20;20.60;;;;;;;5.12;100.00;101752.95;219814;1264;138916;-84
2024/01/31 03:43:40;;;;;;;41.10;22.30;;;;;;;5.14;100.00;101756.02;219376;1264;139725;-84
2024/01/31 03:48:40;;;;;;;37.70;21.80;;;;;;;5.14;100.00;101755.30;220006;1264;139062;-82
2024/01/31 03:53:41;;;;;;;40.70;22.00;;;;;;;5.13;100.00;101757.62;220228;1266;139525;-83
2024/01/31 03:58:42;;;;;;;39.40;21.20;;;;;;;5.13;100.00;101757.27;219699;1268;140167;-84
2024/01/31 04:03:44;;;;;;;42.40;22.40;;;;;;;5.11;100.00;101758.82;219273;1267;139675;-85
2024/01/31 04:08:45;;;;;;;44.50;21.20;;;;;;;5.12;100.00;101761.81;219707;1264;138620;-83
2024/01/31 04:13:45;;;;;;;41.60;22.50;;;;;;;5.13;100.00;101759.38;219294;1267;140026;-84
2024/01/31 04:18:46;;;;;;;45.70;23.40;;;;;;;5.14;100.00;101761.41;219742;1264;138982;-84
2024/01/31 04:23:47;;;;;;;40.00;21.30;;;;;;;5.16;100.00;101767.27;219380;1266;139591;-84
2024/01/31 04:28:47;;;;;;;40.40;21.90;;;;;;;5.17;100.00;101772.25;219822;1267;139772;-83
2024/01/31 04:33:48;;;;;;;42.90;23.00;;;;;;;5.18;100.00;101769.79;219422;1264;139715;-83
2024/01/31 04:38:49;;;;;;;43.60;21.70;;;;;;;5.17;100.00;101770.79;219904;1265;138780;-83
2024/01/31 04:43:49;;;;;;;43.30;20.70;;;;;;;5.17;100.00;101772.02;219186;1264;139777;-83
2024/01/31 04:48:49;;;;;;;43.50;21.40;;;;;;;5.16;100.00;101774.63;219920;1263;138930;-82
2024/01/31 04:53:50;;;;;;;40.40;21.10;;;;;;;5.15;100.00;101768.77;220527;1264;139787;-82
2024/01/31 04:58:50;;;;;;;40.40;19.70;;;;;;;5.13;100.00;101765.58;220140;1263;139214;-83
2024/01/31 05:03:52;;;;;;;37.80;20.40;;;;;;;5.13;100.00;101770.16;220153;1264;139868;-83
2024/01/31 05:08:53;;;;;;;42.20;21.60;;;;;;;5.13;100.00;101765.09;220608;1264;138578;-84
2024/01/31 05:13:53;;;;;;;38.20;19.10;;;;;;;5.14;100.00;101767.15;220009;1267;139793;-83
2024/01/31 05:18:54;;;;;;;40.60;20.00;;;;;;;5.16;100.00;101772.35;220509;1267;139633;-85
2024/01/31 05:23:54;;;;;;;36.50;19.50;;;;;;;5.18;100.00;101776.75;220032;1264;140046;-85
2024/01/31 05:28:54;;;;;;;38.00;20.80;;;;;;;5.21;100.00;101775.98;220566;1264;138939;-85
2024/01/31 05:33:55;;;;;;;35.80;19.20;;;;;;;5.24;100.00;101785.35;219730;1264;139829;-85
2024/01/31 05:38:56;;;;;;;37.60;19.20;;;;;;;5.28;100.00;101785.77;220157;1264;138972;-85
2024/01/31 05:43:56;;;;;;;40.90;20.90;;;;;;;5.32;100.00;101789.33;219712;1264;139558;-86
2024/01/31 05:48:57;;;;;;;40.60;19.70;;;;;;;5.34;100.00;101789.38;220292;1263;139269;-85
2024/01/31 05:53:58;;;;;;;32.20;18.50;;;;;;;5.37;100.00;101787.18;221003;1267;139568;-83
2024/01/31 05:58:58;;;;;;;39.00;19.10;;;;;;;5.39;100.00;101793.18;220405;1264;139009;-84
2024/01/31 06:04:00;;;;;;;54.10;29.40;;;;;;;5.42;100.00;101793.63;219883;1264;139313;-84
2024/01/31 06:09:00;;;;;;;43.70;22.90;;;;;;;5.45;100.00;101794.04;219810;1265;139409;-84
2024/01/31 06:14:00;;;;;;;45.10;22.50;;;;;;;5.47;100.00;101787.98;219887;1265;139592;-83
2024/01/31 06:19:01;;;;;;;62.50;30.40;;;;;;;5.49;100.00;101789.50;220004;1265;139593;-84
2024/01/31 06:24:02;;;;;;;36.70;20.30;;;;;;;5.54;100.00;101794.09;219246;1267;140354;-84
2024/01/31 06:29:02;;;;;;;44.10;24.10;;;;;;;5.55;100.00;101795.14;219784;1266;138855;-84
2024/01/31 06:34:03;;;;;;;38.70;20.50;;;;;;;5.60;100.00;101801.75;219461;1264;139677;-83
2024/01/31 06:39:03;;;;;;;40.50;19.10;;;;;;;5.62;100.00;101803.70;219764;1264;138834;-83
2024/01/31 06:44:04;;;;;;;39.90;21.80;;;;;;;5.66;100.00;101811.98;219228;1264;139727;-84
2024/01/31 06:49:05;;;;;;;39.60;19.90;;;;;;;5.69;100.00;101810.98;219760;1264;139016;-85
2024/01/31 06:54:06;;;;;;;33.40;18.80;;;;;;;5.71;100.00;101813.38;220804;1267;139820;-85
2024/01/31 06:59:08;;;;;;;34.20;19.90;;;;;;;5.74;100.00;101817.45;219797;1267;139315;-87
2024/01/31 07:04:09;;;;;;;39.00;21.30;;;;;;;5.77;100.00;101818.85;219921;1265;140523;-85
2024/01/31 07:09:09;;;;;;;35.40;19.40;;;;;;;5.79;100.00;101830.63;219700;1265;138900;-85
2024/01/31 07:14:10;;;;;;;36.70;19.70;;;;;;;5.81;100.00;101833.98;219254;1267;140105;-85
2024/01/31 07:19:10;;;;;;;34.70;20.10;;;;;;;5.83;100.00;101830.72;219837;1266;138969;-84
2024/01/31 07:24:10;;;;;;;31.50;18.30;;;;;;;5.85;100.00;101838.34;220040;1264;139518;-86
2024/01/31 07:29:11;;;;;;;31.70;17.30;;;;;;;5.89;100.00;101846.34;220090;1264;139284;-86
2024/01/31 07:34:11;;;;;;;30.40;15.90;;;;;;;5.91;100.00;101852.53;221971;1264;139688;-86
2024/01/31 07:39:12;;;;;;;31.80;14.60;;;;;;;5.93;100.00;101861.42;223056;1264;138801;-84
2024/01/31 07:44:12;;;;;;;29.80;14.80;;;;;;;5.97;100.00;101861.87;222667;1264;139531;-85
2024/01/31 07:49:13;;;;;;;24.30;12.70;;;;;;;6.03;100.00;101858.23;223142;1264;139049;-85
2024/01/31 07:54:15;;;;;;;27.30;13.40;;;;;;;6.07;100.00;101865.60;222681;1264;140588;-87
2024/01/31 07:59:15;;;;;;;19.60;11.20;;;;;;;6.13;100.00;101870.20;222987;1264;139932;-89
2024/01/31 08:04:16;;;;;;;21.50;11.30;;;;;;;6.21;100.00;101875.42;222642;1265;139900;-90
2024/01/31 08:09:16;;;;;;;20.20;10.70;;;;;;;6.28;100.00;101879.34;223089;1264;138782;-88
2024/01/31 08:14:17;;;;;;;25.80;11.40;;;;;;;6.35;100.00;101879.47;222470;1264;140093;-90
2024/01/31 08:19:17;;;;;;;20.00;10.60;;;;;;;6.41;100.00;101880.02;223095;1264;139756;-88
2024/01/31 08:24:18;;;;;;;18.10;9.30;;;;;;;6.47;100.00;101878.44;222619;1264;140171;-89
2024/01/31 08:29:19;;;;;;;19.00;8.70;;;;;;;6.55;100.00;101883.37;223064;1264;139301;-88
2024/01/31 08:34:19;;;;;;;16.30;8.60;;;;;;;6.62;100.00;101882.46;222730;1264;139565;-88
2024/01/31 08:39:20;;;;;;;16.00;7.60;;;;;;;6.69;100.00;101886.48;223074;1264;139305;-88
2024/01/31 08:44:20;;;;;;;15.40;7.40;;;;;;;6.76;100.00;101893.56;222504;1264;140212;-89
2024/01/31 08:49:21;;;;;;;16.90;7.50;;;;;;;6.83;100.00;101895.88;223090;1264;139045;-90
2024/01/31 08:54:21;;;;;;;17.00;7.30;;;;;;;6.89;100.00;101900.77;223018;1264;139980;-89
2024/01/31 08:59:22;;;;;;;15.50;6.90;;;;;;;6.93;100.00;101895.49;223069;1264;139152;-89
2024/01/31 09:04:23;;;;;;;13.40;7.40;;;;;;;6.98;100.00;101896.66;222541;1264;140100;-88
2024/01/31 09:09:24;;;;;;;13.70;7.20;;;;;;;7.01;100.00;101893.88;222092;1266;138422;-87
2024/01/31 09:14:24;;;;;;;12.70;6.50;;;;;;;7.04;100.00;101896.11;219871;1265;139817;-88
2024/01/31 09:19:25;;;;;;;14.40;7.30;;;;;;;7.06;100.00;101894.84;222284;1267;138872;-86
2024/01/31 09:24:25;;;;;;;15.70;6.30;;;;;;;7.08;100.00;101891.63;222280;1264;139302;-90
2024/01/31 09:29:26;;;;;;;11.90;6.20;;;;;;;7.09;100.00;101896.13;223044;1266;139336;-86
2024/01/31 09:34:26;;;;;;;9.30;5.00;;;;;;;7.10;100.00;101898.82;222685;1264;141341;-89
2024/01/31 09:39:29;;;;;;;11.60;5.50;;;;;;;7.12;100.00;101897.05;222912;1264;138885;-88
2024/01/31 09:44:30;;;;;;;14.60;6.20;;;;;;;7.14;100.00;101899.33;222480;1264;139578;-87
2024/01/31 09:49:30;;;;;;;16.50;6.50;;;;;;;7.15;100.00;101902.51;223099;1264;139038;-89
2024/01/31 09:54:31;;;;;;;12.40;6.40;;;;;;;7.18;100.00;101911.84;223004;1264;139242;-87
2024/01/31 09:59:32;;;;;;;10.60;4.60;;;;;;;7.20;100.00;101908.39;223000;1264;139244;-87
2024/01/31 10:04:33;;;;;;;8.40;4.00;;;;;;;7.21;100.00;101905.95;222440;1264;139367;-88
2024/01/31 10:09:33;;;;;;;10.70;3.10;;;;;;;7.24;100.00;101896.16;223096;1264;138185;-87
2024/01/31 10:14:33;;;;;;;6.50;2.80;;;;;;;7.27;100.00;101897.48;222272;1264;141389;-87
2024/01/31 10:19:34;;;;;;;7.30;3.90;;;;;;;7.30;100.00;101893.36;222938;1264;138624;-86
2024/01/31 10:24:34;;;;;;;7.70;3.20;;;;;;;7.33;100.00;101885.16;222397;1266;434120;-88
2024/01/31 10:29:37;;;;;;;7.20;3.20;;;;;;;7.36;100.00;101882.33;222962;1265;139345;-87
2024/01/31 10:34:38;;;;;;;5.80;2.90;;;;;;;7.38;100.00;101881.17;222544;1264;140294;-88
2024/01/31 10:39:40;;;;;;;5.90;2.70;;;;;;;7.41;100.00;101875.89;222875;1264;138193;-88
2024/01/31 10:44:43;;;;;;;9.10;4.40;;;;;;;7.45;100.00;101875.63;222394;1265;139663;-88
2024/01/31 10:49:44;;;;;;;7.80;3.80;;;;;;;7.50;100.00;101880.40;222926;1265;138566;-89
2024/01/31 10:54:53;;;;;;;7.10;3.70;;;;;;;7.52;100.00;101877.00;222958;1267;139550;-89
2024/01/31 10:59:58;;;;;;;12.70;4.00;;;;;;;7.53;100.00;101878.51;220101;1264;139281;-88
2024/01/31 11:05:06;;;;;;;6.50;2.60;;;;;;;7.50;100.00;101877.89;221473;1264;138768;-89
2024/01/31 11:10:10;;;;;;;4.60;2.10;;;;;;;7.49;100.00;101880.34;221989;1264;138916;-87
2024/01/31 11:15:11;;;;;;;6.70;2.10;;;;;;;7.47;100.00;101892.87;222831;1264;139029;-86
2024/01/31 11:20:12;;;;;;;3.20;1.90;;;;;;;7.44;100.00;101899.98;222492;1266;140051;-88
2024/01/31 11:25:14;;;;;;;4.60;2.10;;;;;;;7.46;100.00;101905.09;223076;1266;138517;-89
2024/01/31 11:30:15;;;;;;;7.60;2.70;;;;;;;7.41;100.00;101905.66;223545;1264;139748;-88
2024/01/31 11:35:15;;;;;;;6.40;2.40;;;;;;;7.39;100.00;101900.24;223122;1264;138432;-88
2024/01/31 11:40:16;;;;;;;5.40;2.20;;;;;;;7.36;100.00;101895.41;222493;1264;140085;-87
2024/01/31 11:45:16;;;;;;;8.60;3.30;;;;;;;7.36;100.00;101895.46;222986;1265;138706;-88
2024/01/31 11:50:18;;;;;;;5.10;2.40;;;;;;;7.35;100.00;101891.98;221956;1265;140366;-87
2024/01/31 11:55:29;;;;;;;6.30;2.70;;;;;;;7.34;100.00;101894.27;222952;1267;138498;-87
2024/01/31 12:00:31;;;;;;;7.30;3.00;;;;;;;7.34;100.00;101895.63;222203;1266;138944;-90
2024/01/31 12:05:32;;;;;;;8.00;3.70;;;;;;;7.38;100.00;101894.38;222646;1264;139296;-88
2024/01/31 12:10:32;;;;;;;5.10;2.80;;;;;;;7.37;100.00;101883.06;222272;1265;139360;-87
2024/01/31 12:15:33;;;;;;;6.50;3.00;;;;;;;7.35;100.00;101891.19;222687;1264;139110;-87
2024/01/31 12:20:34;;;;;;;10.00;3.80;;;;;;;7.34;100.00;101887.58;222229;1265;139427;-88
2024/01/31 12:25:35;;;;;;;5.90;2.40;;;;;;;7.33;100.00;101873.48;223237;1266;138924;-89
2024/01/31 12:30:35;;;;;;;6.80;2.50;;;;;;;7.29;100.00;101875.65;222360;1267;139493;-86
2024/01/31 12:35:36;;;;;;;6.50;2.60;;;;;;;7.25;100.00;101873.42;223029;1263;139094;-87
2024/01/31 12:40:38;;;;;;;9.30;3.60;;;;;;;7.19;100.00;101876.66;222526;1264;140626;-86
2024/01/31 12:45:39;;;;;;;10.20;4.20;;;;;;;7.14;100.00;101870.49;221105;1266;139398;-88
2024/01/31 12:50:39;;;;;;;6.50;2.90;;;;;;;7.11;100.00;101870.55;219941;1266;140344;-85
2024/01/31 12:55:40;;;;;;;7.70;3.10;;;;;;;7.08;100.00;101865.32;223093;1263;138749;-88
2024/01/31 13:00:40;;;;;;;7.60;2.80;;;;;;;7.03;100.00;101860.71;221951;1264;139747;-89
2024/01/31 13:05:41;;;;;;;5.40;2.10;;;;;;;7.00;100.00;101860.42;222491;1264;138904;-88
2024/01/31 13:10:42;;;;;;;8.70;3.30;;;;;;;6.96;100.00;101857.08;222151;1264;139945;-89
2024/01/31 13:15:42;;;;;;;6.00;2.00;;;;;;;6.91;100.00;101859.14;222733;1264;97942;-89
2024/01/31 13:20:43;;;;;;;5.20;2.30;;;;;;;6.82;100.00;101855.02;221927;1264;139416;-89
2024/01/31 13:25:43;;;;;;;8.00;2.90;;;;;;;6.78;100.00;101853.69;222359;1264;139425;-88
2024/01/31 13:30:44;;;;;;;7.90;3.10;;;;;;;6.75;100.00;101853.58;221493;1266;139658;-90
2024/01/31 13:35:45;;;;;;;9.40;3.50;;;;;;;6.73;100.00;101852.16;221215;1269;138484;-90
2024/01/31 13:40:46;;;;;;;5.40;2.20;;;;;;;6.67;100.00;101848.14;219949;1267;140016;-89
2024/01/31 13:45:47;;;;;;;9.40;2.80;;;;;;;6.61;100.00;101844.24;220602;1267;97983;-89
2024/01/31 13:50:47;;;;;;;7.80;2.30;;;;;;;6.57;100.00;101840.70;219777;1269;140605;-88
2024/01/31 13:55:48;;;;;;;4.80;2.00;;;;;;;6.52;100.00;101843.58;221600;1266;138634;-89
2024/01/31 14:00:48;;;;;;;7.50;2.50;;;;;;;6.48;100.00;101848.16;221990;1264;140181;-87
2024/01/31 14:05:49;;;;;;;6.30;2.70;;;;;;;6.44;100.00;101844.44;222745;1266;138477;-87
2024/01/31 14:10:50;;;;;;;8.40;3.40;;;;;;;6.41;100.00;101842.35;222146;1265;139485;-89
2024/01/31 14:15:50;;;;;;;9.40;4.00;;;;;;;6.41;100.00;101842.69;223009;1264;98215;-88
2024/01/31 14:20:51;;;;;;;8.40;3.30;;;;;;;6.38;100.00;101838.27;222285;1264;138976;-88
2024/01/31 14:25:53;;;;;;;6.80;3.00;;;;;;;6.36;100.00;101841.27;222668;1266;138506;-88
2024/01/31 14:30:53;;;;;;;7.40;3.50;;;;;;;6.34;100.00;101850.69;222306;1264;141844;-88
2024/01/31 14:35:54;;;;;;;6.60;2.70;;;;;;;6.30;100.00;101855.71;220051;1264;138455;-87
2024/01/31 14:40:55;;;;;;;8.00;3.00;;;;;;;6.28;100.00;101854.30;221003;1267;139940;-88
2024/01/31 14:45:55;;;;;;;7.80;2.80;;;;;;;6.22;100.00;101854.23;222939;1264;97841;-88
2024/01/31 14:50:56;;;;;;;6.40;2.70;;;;;;;6.20;100.00;101860.85;222414;1263;140080;-89
2024/01/31 14:55:56;;;;;;;16.80;8.00;;;;;;;6.16;100.00;101871.34;222514;1265;139012;-89
2024/01/31 15:00:57;;;;;;;10.70;3.40;;;;;;;6.11;100.00;101868.14;222247;1265;139787;-89
2024/01/31 15:05:58;;;;;;;8.10;3.60;;;;;;;6.08;100.00;101864.83;221976;1265;138662;-90
2024/01/31 15:11:00;;;;;;;7.20;3.20;;;;;;;6.03;100.00;101868.65;221107;1264;139648;-89
2024/01/31 15:16:00;;;;;;;6.20;2.90;;;;;;;6.00;100.00;101863.45;222372;1264;96431;-90
2024/01/31 15:21:02;;;;;;;6.20;2.70;;;;;;;5.94;100.00;101868.95;222126;1265;139518;-92
2024/01/31 15:26:03;;;;;;;4.70;2.40;;;;;;;5.89;100.00;101871.58;222875;1263;138506;-91
2024/01/31 15:31:04;;;;;;;7.00;2.20;;;;;;;5.82;100.00;101869.86;222154;1264;139273;-87
2024/01/31 15:36:05;;;;;;;6.50;2.30;;;;;;;5.74;100.00;101860.73;222927;1265;138507;-87
2024/01/31 15:41:07;;;;;;;7.60;2.30;;;;;;;5.69;100.00;101856.16;222497;1264;139726;-87
2024/01/31 15:46:08;;;;;;;7.30;2.10;;;;;;;5.66;100.00;101850.42;223054;1266;97818;-86
2024/01/31 15:51:08;;;;;;;4.20;1.50;;;;;;;5.61;100.00;101852.79;222355;1267;139389;-91
2024/01/31 15:56:09;;;;;;;5.60;2.00;;;;;;;5.54;100.00;101844.45;223295;1266;139178;-87
2024/01/31 16:01:09;;;;;;;4.30;1.50;;;;;;;5.47;100.00;101840.17;222713;1264;139505;-89
2024/01/31 16:06:10;;;;;;;5.70;2.10;;;;;;;5.43;100.00;101831.86;222971;1269;139185;-89
2024/01/31 16:11:13;;;;;;;10.10;2.50;;;;;;;5.40;100.00;101817.30;222404;1266;139483;-94
2024/01/31 16:16:13;;;;;;;5.10;1.90;;;;;;;5.38;100.00;101802.93;222993;1264;111166;-89
2024/01/31 16:21:14;;;;;;;5.60;2.10;;;;;;;5.35;100.00;101788.48;220699;1264;139662;-88
2024/01/31 16:26:15;;;;;;;3.90;1.90;;;;;;;5.32;100.00;101775.14;220948;1264;138430;-93
2024/01/31 16:31:16;;;;;;;6.40;2.00;;;;;;;5.29;100.00;101775.70;222308;1267;140440;-90
2024/01/31 16:36:21;;;;;;;7.90;4.00;;;;;;;5.26;100.00;101768.28;223000;1264;138758;-90
2024/01/31 16:41:23;;;;;;;5.30;2.00;;;;;;;5.21;100.00;101768.48;222517;1264;139626;-89
2024/01/31 16:46:25;;;;;;;6.50;2.40;;;;;;;5.16;100.00;101761.58;223237;1266;98429;-88
2024/01/31 16:51:26;;;;;;;6.60;2.70;;;;;;;5.15;100.00;101765.02;222394;1269;139686;-88
2024/01/31 16:56:26;;;;;;;10.30;2.80;;;;;;;5.13;100.00;101765.42;223117;1263;138288;-86
2024/01/31 17:01:26;;;;;;;6.40;2.70;;;;;;;5.12;100.00;101768.61;222809;1264;139930;-87
2024/01/31 17:06:27;;;;;;;11.80;4.60;;;;;;;5.11;100.00;101775.52;222832;1264;138452;-90
2024/01/31 17:11:30;;;;;;;7.40;3.30;;;;;;;5.09;100.00;101780.05;222489;1268;139781;-88
2024/01/31 17:16:31;;;;;;;7.30;2.90;;;;;;;5.03;100.00;101778.74;223227;1267;96461;-88
2024/01/31 17:21:31;;;;;;;9.10;3.10;;;;;;;5.00;100.00;101776.43;222571;1269;139580;-87
2024/01/31 17:26:31;;;;;;;7.10;2.70;;;;;;;4.98;100.00;101777.13;223199;1266;138398;-87
2024/01/31 17:31:33;;;;;;;6.30;3.40;;;;;;;4.98;100.00;101770.16;222680;1267;139795;-87
2024/01/31 17:36:34;;;;;;;6.80;3.30;;;;;;;4.97;100.00;101757.98;223209;1269;138487;-90
2024/01/31 17:41:34;;;;;;;9.80;5.20;;;;;;;4.96;100.00;101752.71;222640;1264;139580;-92
2024/01/31 17:46:34;;;;;;;11.00;4.70;;;;;;;4.94;100.00;101744.75;223349;1264;97764;-89
2024/01/31 17:51:38;;;;;;;6.90;3.40;;;;;;;4.91;100.00;101735.27;222728;1264;139650;-92
2024/01/31 17:56:43;;;;;;;6.80;3.10;;;;;;;4.87;100.00;101728.76;223581;1267;138881;-91
2024/01/31 18:01:44;;;;;;;3.60;2.40;;;;;;;4.82;100.00;101732.52;222800;1264;139365;-93
2024/01/31 18:06:45;;;;;;;5.50;2.80;;;;;;;4.77;100.00;101728.56;221603;1269;138526;-93
2024/01/31 18:11:46;;;;;;;6.80;3.30;;;;;;;4.72;100.00;101723.27;220471;1268;139299;-90
2024/01/31 18:16:46;;;;;;;7.00;2.70;;;;;;;4.72;100.00;101725.11;222810;1264;138472;-90
2024/01/31 18:21:47;;;;;;;7.10;3.00;;;;;;;4.68;100.00;101727.84;222727;1264;139355;-89
2024/01/31 18:26:47;;;;;;;7.60;2.60;;;;;;;4.64;100.00;101720.06;223295;1264;140444;-88
2024/01/31 18:31:48;;;;;;;10.30;4.80;;;;;;;4.60;100.00;101720.09;222790;1264;140099;-89
2024/01/31 18:36:48;;;;;;;11.50;3.30;;;;;;;4.60;100.00;101706.96;223214;1267;139426;-90
2024/01/31 18:41:49;;;;;;;9.40;4.60;;;;;;;4.59;100.00;101692.20;222666;1268;140353;-91
2024/01/31 18:46:50;;;;;;;9.50;3.50;;;;;;;4.56;100.00;101676.23;223158;1264;138598;-92
2024/01/31 18:51:50;;;;;;;8.00;3.40;;;;;;;4.52;100.00;101668.30;222826;1264;139824;-91
2024/01/31 18:56:51;;;;;;;9.20;4.30;;;;;;;4.48;100.00;101657.48;223349;1264;138297;-89
2024/01/31 19:01:52;;;;;;;7.90;2.60;;;;;;;4.46;100.00;101653.18;222877;1268;139451;-89
2024/01/31 19:06:53;;;;;;;8.70;3.60;;;;;;;4.43;100.00;101651.16;223288;1264;138454;-90
2024/01/31 19:11:54;;;;;;;7.50;2.90;;;;;;;4.42;100.00;101643.30;222502;1267;140089;-88
2024/01/31 19:16:55;;;;;;;9.30;4.00;;;;;;;4.42;100.00;101631.63;223250;1264;138526;-89
2024/01/31 19:21:56;;;;;;;9.10;3.40;;;;;;;4.42;100.00;101615.81;222882;1264;139893;-90
2024/01/31 19:26:56;;;;;;;10.10;3.80;;;;;;;4.41;100.00;101609.14;223365;1264;138476;-90
2024/01/31 19:31:57;;;;;;;8.10;3.80;;;;;;;4.40;100.00;101602.71;222588;1264;139604;-88
2024/01/31 19:36:58;;;;;;;8.10;4.00;;;;;;;4.40;100.00;101592.73;223299;1264;138755;-87
2024/01/31 19:41:59;;;;;;;9.20;3.90;;;;;;;4.40;100.00;101594.11;222634;1264;140302;-92
2024/01/31 19:47:00;;;;;;;9.40;4.60;;;;;;;4.40;100.00;101582.89;223258;1264;139241;-88
2024/01/31 19:52:01;;;;;;;10.20;4.60;;;;;;;4.39;100.00;101577.95;221228;1264;139663;-88
2024/01/31 19:57:04;;;;;;;11.60;5.40;;;;;;;4.39;100.00;101587.92;221235;1264;138494;-89
2024/01/31 20:02:06;;;;;;;10.70;4.40;;;;;;;4.36;100.00;101593.98;222001;1264;140032;-88
2024/01/31 20:07:07;;;;;;;8.10;4.20;;;;;;;4.31;100.00;101591.70;222083;1264;139729;-89
2024/01/31 20:12:08;;;;;;;8.70;4.30;;;;;;;4.27;100.00;101579.10;222297;1264;139650;-90
2024/01/31 20:17:08;;;;;;;10.60;4.70;;;;;;;4.24;100.00;101579.16;222834;1264;139330;-86
2024/01/31 20:22:09;;;;;;;10.40;4.20;;;;;;;4.20;100.00;101569.72;222348;1264;139871;-88
2024/01/31 20:27:09;;;;;;;9.10;4.10;;;;;;;4.17;100.00;101564.45;222551;1264;138583;-85
2024/01/31 20:32:10;;;;;;;9.50;4.10;;;;;;;4.15;100.00;101552.13;221791;1264;139831;-87
2024/01/31 20:37:11;;;;;;;10.70;5.30;;;;;;;4.15;100.00;101537.09;222434;1267;139075;-89
2024/01/31 20:42:11;;;;;;;11.10;5.10;;;;;;;4.13;100.00;101520.18;222206;1264;139609;-87
2024/01/31 20:47:12;;;;;;;9.40;4.80;;;;;;;4.12;100.00;101502.02;222594;1264;138857;-88
2024/01/31 20:52:13;;;;;;;13.20;6.60;;;;;;;4.09;100.00;101477.61;222186;1264;140336;-88
2024/01/31 20:57:13;;;;;;;16.10;6.90;;;;;;;4.08;100.00;101456.35;222914;1264;139082;-87
2024/01/31 21:02:14;;;;;;;12.40;7.00;;;;;;;4.06;100.00;101427.23;222400;1264;139915;-85
2024/01/31 21:07:15;;;;;;;13.80;8.00;;;;;;;4.04;100.00;101420.98;222883;1264;138733;-90
2024/01/31 21:12:15;;;;;;;16.10;8.20;;;;;;;4.03;100.00;101413.77;222013;1264;139691;-90
2024/01/31 21:17:16;;;;;;;16.70;9.10;;;;;;;4.02;100.00;101402.02;222490;1264;138725;-89
2024/01/31 21:22:16;;;;;;;15.90;8.30;;;;;;;4.03;100.00;101403.40;221956;1264;140202;-88
2024/01/31 21:27:18;;;;;;;16.00;9.00;;;;;;;4.04;100.00;101393.26;222675;1264;138567;-89
2024/01/31 21:32:19;;;;;;;15.20;9.70;;;;;;;4.03;100.00;101386.40;222074;1264;140074;-87
2024/01/31 21:37:19;;;;;;;16.00;9.50;;;;;;;4.03;100.00;101379.38;221085;1264;138927;-85
2024/01/31 21:42:20;;;;;;;17.70;9.40;;;;;;;4.04;100.00;101372.37;220214;1265;139738;-85
2024/01/31 21:47:21;;;;;;;15.70;9.40;;;;;;;4.04;100.00;101358.02;222016;1264;138886;-87
2024/01/31 21:52:22;;;;;;;16.20;9.70;;;;;;;4.02;100.00;101354.27;222523;1264;140126;-86
2024/01/31 21:57:22;;;;;;;13.60;8.90;;;;;;;4.03;100.00;101355.41;223340;1264;138599;-85
2024/01/31 22:02:24;;;;;;;21.20;10.80;;;;;;;4.03;100.00;101342.08;222678;1264;139695;-90
2024/01/31 22:07:25;;;;;;;15.70;9.90;;;;;;;4.05;100.00;101328.17;223172;1264;139376;-86
2024/01/31 22:12:25;;;;;;;20.80;10.70;;;;;;;4.07;100.00;101321.86;222662;1264;139756;-88
2024/01/31 22:17:26;;;;;;;15.00;9.30;;;;;;;4.09;100.00;101307.61;223191;1264;140121;-87
2024/01/31 22:22:26;;;;;;;15.80;9.50;;;;;;;4.06;100.00;101291.66;222848;1264;139950;-86
2024/01/31 22:27:26;;;;;;;15.60;8.90;;;;;;;4.04;100.00;101287.03;223107;1264;152245;-88
2024/01/31 22:32:27;;;;;;;19.00;10.70;;;;;;;3.97;100.00;101270.36;222666;1264;139697;-89